createdAt,value
2022-12-15T00:00:30.084Z,0.00
2022-12-15T00:01:30.041Z,0.00
2022-12-15T00:02:30.097Z,0.00
2022-12-15T00:03:30.564Z,0.00
2022-12-15T00:04:29.991Z,0.00
2022-12-15T00:05:29.981Z,0.00
2022-12-15T00:06:30.043Z,0.00
2022-12-15T00:07:29.968Z,0.00
2022-12-15T00:08:29.950Z,0.00
2022-12-15T00:09:31.110Z,0.00
2022-12-15T00:10:29.927Z,0.00
2022-12-15T00:11:29.918Z,0.00
2022-12-15T00:12:29.918Z,0.00
2022-12-15T00:13:30.448Z,0.00
2022-12-15T00:14:29.888Z,0.00
2022-12-15T00:15:29.877Z,0.00
2022-12-15T00:16:29.935Z,0.00
2022-12-15T00:17:29.890Z,0.00
2022-12-15T00:18:29.846Z,0.00
2022-12-15T00:19:29.855Z,0.00
2022-12-15T00:20:29.828Z,0.00
2022-12-15T00:21:29.816Z,0.00
2022-12-15T00:22:29.853Z,0.00
2022-12-15T00:23:30.256Z,0.00
2022-12-15T00:24:29.784Z,0.00
2022-12-15T00:25:29.772Z,0.00
2022-12-15T00:26:29.789Z,0.00
2022-12-15T00:27:29.752Z,0.00
2022-12-15T00:28:29.743Z,0.00
2022-12-15T00:29:29.731Z,0.00
2022-12-15T00:30:29.724Z,0.00
2022-12-15T00:31:29.770Z,0.00
2022-12-15T00:32:29.702Z,0.00
2022-12-15T00:33:30.169Z,0.00
2022-12-15T00:34:29.685Z,0.00
2022-12-15T00:35:29.670Z,0.00
2022-12-15T00:36:29.672Z,0.00
2022-12-15T00:37:29.651Z,0.00
2022-12-15T00:38:29.642Z,0.00
2022-12-15T00:39:29.627Z,0.00
2022-12-15T00:40:29.627Z,0.00
2022-12-15T00:41:29.618Z,0.00
2022-12-15T00:42:29.600Z,0.00
2022-12-15T00:43:30.027Z,0.00
2022-12-15T00:44:29.578Z,0.00
2022-12-15T00:45:29.565Z,0.00
2022-12-15T00:46:29.688Z,0.00
2022-12-15T00:47:29.547Z,0.00
2022-12-15T00:48:29.538Z,0.00
2022-12-15T00:49:29.554Z,0.00
2022-12-15T00:50:29.517Z,0.00
2022-12-15T00:51:29.534Z,0.00
2022-12-15T00:52:29.496Z,0.00
2022-12-15T00:53:30.007Z,0.00
2022-12-15T00:54:29.476Z,0.00
2022-12-15T00:55:29.463Z,0.00
2022-12-15T00:56:29.515Z,0.00
2022-12-15T00:57:29.445Z,0.00
2022-12-15T00:58:29.432Z,0.00
2022-12-15T00:59:29.425Z,0.00
2022-12-15T01:00:29.413Z,0.00
2022-12-15T01:01:29.705Z,0.00
2022-12-15T01:02:29.578Z,0.00
2022-12-15T01:03:30.096Z,0.00
2022-12-15T01:04:29.373Z,0.00
2022-12-15T01:05:29.384Z,0.00
2022-12-15T01:06:29.359Z,0.00
2022-12-15T01:07:29.341Z,0.00
2022-12-15T01:08:29.328Z,0.00
2022-12-15T01:09:29.320Z,0.00
2022-12-15T01:10:29.308Z,0.00
2022-12-15T01:11:29.314Z,0.00
2022-12-15T01:12:29.291Z,0.00
2022-12-15T01:13:29.754Z,0.00
2022-12-15T01:14:29.267Z,0.00
2022-12-15T01:15:29.259Z,0.00
2022-12-15T01:16:29.313Z,0.00
2022-12-15T01:17:29.238Z,0.00
2022-12-15T01:18:29.233Z,0.00
2022-12-15T01:19:29.217Z,0.00
2022-12-15T01:20:29.222Z,0.00
2022-12-15T01:21:29.227Z,0.00
2022-12-15T01:22:29.184Z,0.00
2022-12-15T01:23:29.621Z,0.00
2022-12-15T01:24:29.165Z,0.00
2022-12-15T01:25:29.171Z,0.00
2022-12-15T01:26:29.155Z,0.00
2022-12-15T01:27:29.145Z,0.00
2022-12-15T01:28:29.129Z,0.00
2022-12-15T01:29:29.118Z,0.00
2022-12-15T01:30:29.108Z,0.00
2022-12-15T01:31:29.206Z,0.00
2022-12-15T01:32:29.084Z,0.00
2022-12-15T01:33:29.616Z,0.00
2022-12-15T01:34:29.063Z,0.00
2022-12-15T01:35:29.054Z,0.00
2022-12-15T01:36:29.052Z,0.00
2022-12-15T01:37:29.053Z,0.00
2022-12-15T01:38:29.028Z,0.00
2022-12-15T01:39:29.018Z,0.00
2022-12-15T01:40:29.003Z,0.00
2022-12-15T01:41:29.008Z,0.00
2022-12-15T01:42:28.982Z,0.00
2022-12-15T01:43:29.699Z,0.00
2022-12-15T01:44:28.962Z,0.00
2022-12-15T01:45:29.007Z,0.00
2022-12-15T01:46:29.011Z,0.00
2022-12-15T01:47:28.933Z,0.00
2022-12-15T01:48:28.927Z,0.00
2022-12-15T01:49:28.912Z,0.00
2022-12-15T01:50:28.918Z,0.00
2022-12-15T01:51:28.905Z,0.00
2022-12-15T01:52:28.881Z,0.00
2022-12-15T01:53:29.421Z,0.00
2022-12-15T01:54:28.862Z,0.00
2022-12-15T01:55:28.850Z,0.00
2022-12-15T01:56:33.850Z,0.00
2022-12-15T01:57:29.830Z,0.00
2022-12-15T01:58:28.818Z,0.00
2022-12-15T01:59:28.812Z,0.00
2022-12-15T02:00:28.867Z,0.00
2022-12-15T02:01:28.957Z,0.00
2022-12-15T02:02:28.839Z,0.00
2022-12-15T02:03:29.481Z,0.00
2022-12-15T02:04:28.760Z,0.00
2022-12-15T02:05:28.747Z,0.00
2022-12-15T02:06:28.753Z,0.00
2022-12-15T02:07:28.731Z,0.00
2022-12-15T02:08:28.719Z,0.00
2022-12-15T02:09:28.731Z,0.00
2022-12-15T02:10:28.695Z,0.00
2022-12-15T02:11:28.697Z,0.00
2022-12-15T02:12:28.675Z,0.00
2022-12-15T02:13:29.036Z,0.00
2022-12-15T02:14:28.655Z,0.00
2022-12-15T02:15:28.646Z,0.00
2022-12-15T02:16:28.766Z,0.00
2022-12-15T02:17:28.626Z,0.00
2022-12-15T02:18:28.612Z,0.00
2022-12-15T02:19:28.604Z,0.00
2022-12-15T02:20:28.591Z,0.00
2022-12-15T02:21:28.591Z,0.00
2022-12-15T02:22:28.574Z,0.00
2022-12-15T02:23:28.918Z,0.00
2022-12-15T02:24:28.551Z,0.00
2022-12-15T02:25:28.566Z,0.00
2022-12-15T02:26:28.581Z,0.00
2022-12-15T02:27:28.522Z,0.00
2022-12-15T02:28:28.510Z,0.00
2022-12-15T02:29:28.501Z,0.00
2022-12-15T02:30:28.491Z,0.00
2022-12-15T02:31:28.547Z,0.00
2022-12-15T02:32:28.469Z,0.00
2022-12-15T02:33:28.936Z,0.00
2022-12-15T02:34:28.450Z,0.00
2022-12-15T02:35:28.440Z,0.00
2022-12-15T02:36:28.440Z,0.00
2022-12-15T02:37:28.424Z,0.00
2022-12-15T02:38:28.410Z,0.00
2022-12-15T02:39:28.400Z,0.00
2022-12-15T02:40:28.392Z,0.00
2022-12-15T02:41:28.413Z,0.00
2022-12-15T02:42:28.366Z,0.00
2022-12-15T02:43:28.872Z,0.00
2022-12-15T02:44:28.345Z,0.00
2022-12-15T02:45:28.409Z,0.00
2022-12-15T02:46:28.334Z,0.00
2022-12-15T02:47:28.317Z,0.00
2022-12-15T02:48:28.305Z,0.00
2022-12-15T02:49:28.294Z,0.00
2022-12-15T02:50:28.287Z,0.00
2022-12-15T02:51:28.288Z,0.00
2022-12-15T02:52:28.264Z,0.00
2022-12-15T02:53:28.577Z,0.00
2022-12-15T02:54:28.243Z,0.00
2022-12-15T02:55:28.235Z,0.00
2022-12-15T02:56:28.236Z,0.00
2022-12-15T02:57:28.236Z,0.00
2022-12-15T02:58:28.204Z,0.00
2022-12-15T02:59:28.194Z,0.00
2022-12-15T03:00:28.181Z,0.00
2022-12-15T03:01:28.330Z,0.00
2022-12-15T03:02:28.310Z,0.00
2022-12-15T03:03:28.514Z,0.00
2022-12-15T03:04:28.145Z,0.00
2022-12-15T03:05:28.131Z,0.00
2022-12-15T03:06:28.131Z,0.00
2022-12-15T03:07:28.145Z,0.00
2022-12-15T03:08:28.101Z,0.00
2022-12-15T03:09:28.095Z,0.00
2022-12-15T03:10:28.080Z,0.00
2022-12-15T03:11:28.082Z,0.00
2022-12-15T03:12:28.060Z,0.00
2022-12-15T03:13:28.426Z,0.00
2022-12-15T03:14:28.039Z,0.00
2022-12-15T03:15:31.830Z,0.00
2022-12-15T03:16:29.075Z,0.00
2022-12-15T03:17:28.011Z,0.00
2022-12-15T03:18:27.997Z,0.00
2022-12-15T03:19:27.991Z,0.00
2022-12-15T03:20:27.980Z,0.00
2022-12-15T03:21:27.978Z,0.00
2022-12-15T03:22:27.980Z,0.00
2022-12-15T03:23:28.401Z,0.00
2022-12-15T03:24:27.938Z,0.00
2022-12-15T03:25:27.928Z,0.00
2022-12-15T03:26:27.925Z,0.00
2022-12-15T03:27:27.907Z,0.00
2022-12-15T03:28:27.897Z,0.00
2022-12-15T03:29:27.906Z,0.00
2022-12-15T03:30:27.874Z,0.00
2022-12-15T03:31:27.936Z,0.00
2022-12-15T03:32:27.860Z,0.00
2022-12-15T03:33:28.313Z,0.00
2022-12-15T03:34:27.836Z,0.00
2022-12-15T03:35:27.835Z,0.00
2022-12-15T03:36:27.844Z,0.00
2022-12-15T03:37:27.807Z,0.00
2022-12-15T03:38:27.793Z,0.00
2022-12-15T03:39:27.786Z,0.00
2022-12-15T03:40:27.786Z,0.00
2022-12-15T03:41:27.775Z,0.00
2022-12-15T03:42:27.753Z,0.00
2022-12-15T03:43:27.962Z,0.00
2022-12-15T03:44:27.732Z,0.00
2022-12-15T03:45:27.753Z,0.00
2022-12-15T03:46:27.770Z,0.00
2022-12-15T03:47:27.706Z,0.00
2022-12-15T03:48:27.691Z,0.00
2022-12-15T03:49:27.681Z,0.00
2022-12-15T03:50:27.669Z,0.00
2022-12-15T03:51:27.674Z,0.00
2022-12-15T03:52:27.650Z,0.00
2022-12-15T03:53:27.830Z,0.00
2022-12-15T03:54:27.631Z,0.00
2022-12-15T03:55:27.619Z,0.00
2022-12-15T03:56:27.630Z,0.00
2022-12-15T03:57:27.600Z,0.00
2022-12-15T03:58:27.590Z,0.00
2022-12-15T03:59:27.583Z,0.00
2022-12-15T04:00:27.590Z,0.00
2022-12-15T04:01:27.812Z,0.00
2022-12-15T04:02:27.769Z,0.00
2022-12-15T04:03:27.783Z,0.00
2022-12-15T04:04:27.527Z,0.00
2022-12-15T04:05:27.524Z,0.00
2022-12-15T04:06:27.515Z,0.00
2022-12-15T04:07:27.499Z,0.00
2022-12-15T04:08:27.503Z,0.00
2022-12-15T04:09:27.483Z,0.00
2022-12-15T04:10:33.603Z,0.00
2022-12-15T04:11:28.496Z,0.00
2022-12-15T04:12:27.446Z,0.00
2022-12-15T04:13:27.610Z,0.00
2022-12-15T04:14:27.425Z,0.00
2022-12-15T04:15:27.418Z,0.00
2022-12-15T04:16:27.438Z,0.00
2022-12-15T04:17:27.413Z,0.00
2022-12-15T04:18:27.385Z,0.00
2022-12-15T04:19:27.380Z,0.00
2022-12-15T04:20:27.372Z,0.00
2022-12-15T04:21:27.356Z,0.00
2022-12-15T04:22:27.351Z,0.00
2022-12-15T04:23:27.603Z,0.00
2022-12-15T04:24:27.321Z,0.00
2022-12-15T04:25:27.315Z,0.00
2022-12-15T04:26:27.305Z,0.00
2022-12-15T04:27:27.304Z,0.00
2022-12-15T04:28:27.286Z,0.00
2022-12-15T04:29:27.274Z,0.00
2022-12-15T04:30:27.260Z,0.00
2022-12-15T04:31:27.357Z,0.00
2022-12-15T04:32:27.249Z,0.00
2022-12-15T04:33:30.737Z,0.00
2022-12-15T04:34:27.221Z,0.00
2022-12-15T04:35:27.211Z,0.00
2022-12-15T04:36:27.201Z,0.00
2022-12-15T04:37:27.215Z,0.00
2022-12-15T04:38:27.180Z,0.00
2022-12-15T04:39:27.170Z,0.00
2022-12-15T04:40:27.169Z,0.00
2022-12-15T04:41:27.151Z,0.00
2022-12-15T04:42:27.152Z,0.00
2022-12-15T04:43:27.134Z,0.00
2022-12-15T04:44:27.116Z,0.00
2022-12-15T04:45:27.111Z,0.00
2022-12-15T04:46:27.207Z,0.00
2022-12-15T04:47:27.102Z,0.00
2022-12-15T04:48:27.076Z,0.00
2022-12-15T04:49:27.095Z,0.00
2022-12-15T04:50:27.065Z,0.00
2022-12-15T04:51:27.045Z,0.00
2022-12-15T04:52:27.046Z,0.00
2022-12-15T04:53:27.077Z,0.00
2022-12-15T04:54:27.018Z,0.00
2022-12-15T04:55:27.008Z,0.00
2022-12-15T04:56:27.044Z,0.00
2022-12-15T04:57:27.006Z,0.00
2022-12-15T04:58:26.974Z,0.00
2022-12-15T04:59:26.970Z,0.00
2022-12-15T05:00:26.956Z,0.00
2022-12-15T05:01:27.110Z,0.00
2022-12-15T05:02:27.101Z,0.00
2022-12-15T05:03:26.930Z,0.00
2022-12-15T05:04:26.983Z,0.00
2022-12-15T05:05:26.922Z,0.00
2022-12-15T05:06:26.909Z,0.00
2022-12-15T05:07:26.895Z,0.00
2022-12-15T05:08:26.901Z,0.00
2022-12-15T05:09:26.863Z,0.00
2022-12-15T05:10:26.858Z,0.00
2022-12-15T05:11:26.842Z,0.00
2022-12-15T05:12:26.847Z,0.00
2022-12-15T05:13:26.836Z,0.00
2022-12-15T05:14:26.817Z,0.00
2022-12-15T05:15:26.854Z,0.00
2022-12-15T05:16:26.875Z,0.00
2022-12-15T05:17:26.832Z,0.00
2022-12-15T05:18:26.781Z,0.00
2022-12-15T05:19:26.764Z,0.00
2022-12-15T05:20:26.799Z,0.00
2022-12-15T05:21:26.850Z,0.00
2022-12-15T05:22:26.749Z,0.00
2022-12-15T05:23:26.824Z,0.00
2022-12-15T05:24:26.711Z,0.00
2022-12-15T05:25:26.699Z,0.00
2022-12-15T05:26:26.695Z,0.00
2022-12-15T05:27:26.700Z,0.00
2022-12-15T05:28:26.671Z,0.00
2022-12-15T05:29:26.659Z,0.00
2022-12-15T05:30:26.650Z,0.00
2022-12-15T05:31:26.679Z,0.00
2022-12-15T05:33:36.538Z,0.00
2022-12-15T05:34:36.529Z,0.00
2022-12-15T05:35:36.536Z,0.00
2022-12-15T05:36:36.520Z,0.00
2022-12-15T05:37:36.496Z,0.00
2022-12-15T05:38:36.478Z,0.00
2022-12-15T05:39:36.467Z,0.00
2022-12-15T05:40:36.455Z,0.00
2022-12-15T05:41:36.446Z,0.00
2022-12-15T05:42:36.464Z,0.00
2022-12-15T05:43:36.431Z,0.00
2022-12-15T05:44:36.417Z,0.00
2022-12-15T05:45:36.406Z,0.00
2022-12-15T05:46:36.495Z,0.00
2022-12-15T05:47:36.400Z,0.00
2022-12-15T05:48:36.374Z,0.00
2022-12-15T05:49:36.365Z,0.00
2022-12-15T05:50:36.353Z,0.00
2022-12-15T05:51:36.349Z,0.00
2022-12-15T05:52:36.459Z,0.00
2022-12-15T05:53:36.332Z,0.00
2022-12-15T05:54:36.315Z,0.00
2022-12-15T05:55:36.306Z,4.00
2022-12-15T05:56:36.299Z,0.00
2022-12-15T05:57:36.301Z,0.00
2022-12-15T05:58:40.059Z,0.00
2022-12-15T05:59:37.268Z,0.00
2022-12-15T06:00:36.258Z,0.00
2022-12-15T06:01:36.292Z,0.00
2022-12-15T06:02:36.255Z,0.00
2022-12-15T06:03:36.240Z,0.00
2022-12-15T06:04:36.288Z,0.00
2022-12-15T06:05:36.210Z,0.00
2022-12-15T06:06:36.196Z,0.00
2022-12-15T06:07:36.204Z,0.00
2022-12-15T06:08:36.223Z,0.00
2022-12-15T06:09:36.169Z,0.00
2022-12-15T06:10:36.155Z,0.00
2022-12-15T06:11:36.184Z,0.00
2022-12-15T06:12:36.141Z,0.00
2022-12-15T06:13:36.126Z,0.00
2022-12-15T06:14:36.113Z,0.00
2022-12-15T06:15:36.106Z,0.00
2022-12-15T06:16:40.964Z,0.00
2022-12-15T06:17:37.113Z,0.00
2022-12-15T06:18:36.074Z,0.00
2022-12-15T06:19:36.069Z,0.00
2022-12-15T06:20:36.052Z,0.00
2022-12-15T06:21:36.078Z,0.00
2022-12-15T06:22:36.051Z,0.00
2022-12-15T06:23:36.031Z,4.00
2022-12-15T06:24:36.143Z,0.00
2022-12-15T06:25:36.005Z,0.00
2022-12-15T06:26:36.037Z,4.00
2022-12-15T06:27:36.000Z,0.00
2022-12-15T06:28:35.972Z,0.00
2022-12-15T06:29:35.963Z,0.00
2022-12-15T06:30:35.953Z,4.00
2022-12-15T06:31:36.018Z,0.00
2022-12-15T06:32:35.953Z,0.00
2022-12-15T06:33:35.926Z,4.00
2022-12-15T06:34:35.915Z,4.00
2022-12-15T06:35:35.905Z,4.00
2022-12-15T06:36:35.901Z,8.00
2022-12-15T06:37:35.899Z,4.00
2022-12-15T06:38:35.872Z,8.00
2022-12-15T06:39:35.871Z,8.00
2022-12-15T06:40:38.196Z,12.00
2022-12-15T06:41:35.844Z,12.00
2022-12-15T06:42:35.847Z,16.00
2022-12-15T06:43:35.876Z,20.00
2022-12-15T06:44:35.816Z,20.00
2022-12-15T06:45:35.815Z,28.00
2022-12-15T06:46:35.900Z,32.00
2022-12-15T06:47:35.799Z,32.00
2022-12-15T06:48:35.773Z,36.00
2022-12-15T06:49:35.764Z,44.00
2022-12-15T06:50:35.750Z,48.00
2022-12-15T06:51:35.748Z,56.00
2022-12-15T06:52:35.752Z,64.00
2022-12-15T06:53:35.812Z,72.00
2022-12-15T06:54:35.711Z,76.00
2022-12-15T06:55:35.713Z,84.00
2022-12-15T06:56:35.733Z,100.00
2022-12-15T06:57:35.720Z,108.00
2022-12-15T06:58:35.695Z,116.00
2022-12-15T06:59:35.672Z,128.00
2022-12-15T07:00:35.705Z,140.00
2022-12-15T07:01:35.980Z,148.00
2022-12-15T07:02:35.852Z,164.00
2022-12-15T07:03:36.141Z,176.00
2022-12-15T07:04:35.612Z,192.00
2022-12-15T07:05:35.615Z,204.00
2022-12-15T07:06:35.591Z,224.00
2022-12-15T07:07:35.588Z,236.00
2022-12-15T07:08:41.459Z,256.00
2022-12-15T07:09:36.562Z,272.00
2022-12-15T07:10:35.550Z,288.00
2022-12-15T07:11:35.575Z,308.00
2022-12-15T07:12:35.549Z,328.00
2022-12-15T07:13:35.549Z,352.00
2022-12-15T07:14:35.535Z,368.00
2022-12-15T07:15:35.505Z,392.00
2022-12-15T07:16:35.597Z,408.00
2022-12-15T07:17:35.494Z,432.00
2022-12-15T07:18:35.487Z,456.00
2022-12-15T07:19:35.495Z,476.00
2022-12-15T07:20:35.463Z,504.00
2022-12-15T07:21:35.458Z,536.00
2022-12-15T07:22:35.430Z,564.00
2022-12-15T07:23:53.210Z,604.00
2022-12-15T07:24:36.411Z,640.00
2022-12-15T07:25:35.406Z,668.00
2022-12-15T07:26:35.405Z,712.00
2022-12-15T07:27:35.385Z,776.00
2022-12-15T07:28:35.402Z,820.00
2022-12-15T07:29:35.365Z,836.00
2022-12-15T07:30:38.939Z,880.00
2022-12-15T07:31:35.396Z,912.00
2022-12-15T07:32:35.343Z,976.00
2022-12-15T07:33:35.336Z,1040.00
2022-12-15T07:34:35.315Z,1100.00
2022-12-15T07:35:35.301Z,1212.00
2022-12-15T07:36:35.303Z,1236.00
2022-12-15T07:37:35.289Z,1216.00
2022-12-15T07:38:35.284Z,1256.00
2022-12-15T07:39:35.261Z,1308.00
2022-12-15T07:40:35.250Z,1368.00
2022-12-15T07:41:35.260Z,1432.00
2022-12-15T07:42:35.233Z,1520.00
2022-12-15T07:43:36.015Z,1604.00
2022-12-15T07:44:35.312Z,1812.00
2022-12-15T07:45:35.273Z,2004.00
2022-12-15T07:46:35.311Z,1972.00
2022-12-15T07:47:35.180Z,1984.00
2022-12-15T07:48:35.179Z,1952.00
2022-12-15T07:49:35.167Z,1940.00
2022-12-15T07:50:35.149Z,2252.00
2022-12-15T07:51:35.139Z,3180.00
2022-12-15T07:52:35.128Z,3752.00
2022-12-15T07:53:35.627Z,3272.00
2022-12-15T07:54:35.113Z,2996.00
2022-12-15T07:56:04.884Z,3352.00
2022-12-15T07:56:39.293Z,5116.00
2022-12-15T07:57:35.080Z,8116.00
2022-12-15T07:58:35.102Z,9792.00
2022-12-15T07:59:35.060Z,10304.00
2022-12-15T08:00:35.092Z,11072.00
2022-12-15T08:01:35.108Z,11200.00
2022-12-15T08:02:35.302Z,11200.00
2022-12-15T08:03:35.665Z,9832.00
2022-12-15T08:04:35.005Z,11072.00
2022-12-15T08:05:34.994Z,11840.00
2022-12-15T08:06:34.986Z,12416.00
2022-12-15T08:07:34.975Z,12448.00
2022-12-15T08:08:42.031Z,12192.00
2022-12-15T08:09:42.661Z,10976.00
2022-12-15T08:11:52.102Z,8580.00
2022-12-15T08:12:52.081Z,9280.00
2022-12-15T08:14:02.475Z,10600.00
2022-12-15T08:14:53.063Z,12192.00
2022-12-15T08:15:52.084Z,13216.00
2022-12-15T08:16:52.116Z,11264.00
2022-12-15T08:17:52.031Z,12096.00
2022-12-15T08:18:52.035Z,15264.00
2022-12-15T08:19:55.759Z,14848.00
2022-12-15T08:20:53.003Z,14400.00
2022-12-15T08:21:51.992Z,15232.00
2022-12-15T08:22:51.977Z,16192.00
2022-12-15T08:25:01.872Z,14432.00
2022-12-15T08:26:01.847Z,8780.00
2022-12-15T08:27:01.889Z,4516.00
2022-12-15T08:28:01.828Z,4288.00
2022-12-15T08:29:24.367Z,4952.00
2022-12-15T08:30:02.806Z,10884.00
2022-12-15T08:31:01.817Z,15296.00
2022-12-15T08:32:02.049Z,15456.00
2022-12-15T08:33:01.772Z,13472.00
2022-12-15T08:34:01.783Z,11872.00
2022-12-15T08:35:01.757Z,10164.00
2022-12-15T08:36:01.746Z,6816.00
2022-12-15T08:37:01.754Z,4804.00
2022-12-15T08:38:05.718Z,5872.00
2022-12-15T08:39:08.775Z,11220.00
2022-12-15T08:40:01.700Z,12388.00
2022-12-15T08:41:01.691Z,7628.00
2022-12-15T08:42:01.686Z,5196.00
2022-12-15T08:43:01.670Z,5476.00
2022-12-15T08:44:01.762Z,5404.00
2022-12-15T08:45:01.645Z,7836.00
2022-12-15T08:46:01.664Z,14016.00
2022-12-15T08:47:01.643Z,20576.00
2022-12-15T08:48:01.613Z,25600.00
2022-12-15T08:49:01.642Z,27808.00
2022-12-15T08:50:01.595Z,26912.00
2022-12-15T08:51:01.584Z,29024.00
2022-12-15T08:52:01.573Z,25536.00
2022-12-15T08:53:29.672Z,21152.00
2022-12-15T08:54:02.565Z,19808.00
2022-12-15T08:55:01.549Z,22112.00
2022-12-15T08:56:01.532Z,19904.00
2022-12-15T08:57:01.528Z,24544.00
2022-12-15T08:58:01.510Z,30432.00
2022-12-15T08:59:01.533Z,27680.00
2022-12-15T09:00:01.487Z,28960.00
2022-12-15T09:01:01.547Z,29824.00
2022-12-15T09:02:01.749Z,26976.00
2022-12-15T09:03:01.476Z,28704.00
2022-12-15T09:04:01.737Z,33376.00
2022-12-15T09:05:01.435Z,35776.00
2022-12-15T09:06:01.451Z,38368.00
2022-12-15T09:07:01.415Z,40768.00
2022-12-15T09:08:06.316Z,39104.00
2022-12-15T09:09:02.442Z,39360.00
2022-12-15T09:10:01.381Z,42976.00
2022-12-15T09:11:01.373Z,40544.00
2022-12-15T09:12:01.358Z,28768.00
2022-12-15T09:13:01.348Z,28448.00
2022-12-15T09:14:01.350Z,32224.00
2022-12-15T09:15:01.334Z,37792.00
2022-12-15T09:16:11.498Z,42784.00
2022-12-15T09:17:02.351Z,41952.00
2022-12-15T09:18:01.293Z,39936.00
2022-12-15T09:19:01.341Z,34368.00
2022-12-15T09:20:01.290Z,31424.00
2022-12-15T09:21:01.262Z,36576.00
2022-12-15T09:22:01.249Z,44000.00
2022-12-15T09:23:01.241Z,43744.00
2022-12-15T09:24:01.250Z,42400.00
2022-12-15T09:25:01.222Z,41216.00
2022-12-15T09:26:01.210Z,39232.00
2022-12-15T09:27:01.201Z,38240.00
2022-12-15T09:28:01.190Z,42048.00
2022-12-15T09:29:01.188Z,47616.00
2022-12-15T09:30:01.179Z,48608.00
2022-12-15T09:31:01.208Z,50368.00
2022-12-15T09:32:01.147Z,51968.00
2022-12-15T09:33:01.135Z,52672.00
2022-12-15T09:34:01.136Z,53056.00
2022-12-15T09:35:01.137Z,53728.00
2022-12-15T09:36:01.097Z,49984.00
2022-12-15T09:37:01.089Z,48928.00
2022-12-15T09:38:01.078Z,48608.00
2022-12-15T09:39:01.080Z,52800.00
2022-12-15T09:40:01.072Z,58240.00
2022-12-15T09:41:01.050Z,56160.00
2022-12-15T09:42:01.035Z,45408.00
2022-12-15T09:43:32.926Z,37984.00
2022-12-15T09:44:02.029Z,39072.00
2022-12-15T09:45:01.006Z,41792.00
2022-12-15T09:46:01.041Z,39488.00
2022-12-15T09:47:00.978Z,31520.00
2022-12-15T09:48:00.974Z,31712.00
2022-12-15T09:49:00.973Z,37696.00
2022-12-15T09:50:00.954Z,41312.00
2022-12-15T09:51:00.955Z,42048.00
2022-12-15T09:52:01.062Z,42496.00
2022-12-15T09:53:00.914Z,44000.00
2022-12-15T09:54:01.457Z,45152.00
2022-12-15T09:55:00.929Z,52160.00
2022-12-15T09:56:00.880Z,52064.00
2022-12-15T09:57:01.024Z,52160.00
2022-12-15T09:58:01.471Z,47168.00
2022-12-15T09:59:00.864Z,38304.00
2022-12-15T10:00:00.841Z,34496.00
2022-12-15T10:01:00.829Z,40896.00
2022-12-15T10:02:00.896Z,51424.00
2022-12-15T10:03:01.047Z,55264.00
2022-12-15T10:04:01.018Z,55648.00
2022-12-15T10:05:00.787Z,55424.00
2022-12-15T10:07:01.777Z,54176.00
2022-12-15T10:08:00.749Z,51104.00
2022-12-15T10:09:00.755Z,21920.00
2022-12-15T10:10:00.730Z,39296.00
2022-12-15T10:11:00.717Z,21824.00
2022-12-15T10:12:00.740Z,23968.00
2022-12-15T10:13:02.509Z,34624.00
2022-12-15T10:14:00.698Z,55264.00
2022-12-15T10:15:00.682Z,34976.00
2022-12-15T10:16:00.773Z,9964.00
2022-12-15T10:17:00.652Z,7360.00
2022-12-15T10:18:00.647Z,5096.00
2022-12-15T10:20:01.617Z,3052.00
2022-12-15T10:21:00.609Z,2772.00
2022-12-15T10:22:00.600Z,2340.00
2022-12-15T10:23:00.618Z,2084.00
2022-12-15T10:24:00.716Z,2704.00
2022-12-15T10:25:09.570Z,3180.00
2022-12-15T10:26:01.559Z,4332.00
2022-12-15T10:27:00.546Z,6244.00
2022-12-15T10:28:00.533Z,7208.00
2022-12-15T10:29:00.541Z,6696.00
2022-12-15T10:30:00.670Z,8688.00
2022-12-15T10:31:00.639Z,9336.00
2022-12-15T10:32:00.489Z,9260.00
2022-12-15T10:33:00.484Z,9252.00
2022-12-15T10:34:00.479Z,9260.00
2022-12-15T10:35:00.537Z,9756.00
2022-12-15T10:36:00.455Z,6832.00
2022-12-15T10:37:00.479Z,5184.00
2022-12-15T10:38:00.431Z,5020.00
2022-12-15T10:39:00.448Z,4696.00
2022-12-15T10:40:00.442Z,4156.00
2022-12-15T10:41:00.393Z,4340.00
2022-12-15T10:42:00.398Z,4072.00
2022-12-15T10:43:00.384Z,3404.00
2022-12-15T10:44:00.380Z,3500.00
2022-12-15T10:45:00.375Z,4108.00
2022-12-15T10:46:00.446Z,4384.00
2022-12-15T10:47:00.336Z,4520.00
2022-12-15T10:48:00.321Z,6128.00
2022-12-15T10:49:00.330Z,7076.00
2022-12-15T10:50:00.298Z,7016.00
2022-12-15T10:51:00.291Z,6612.00
2022-12-15T10:52:00.277Z,6440.00
2022-12-15T10:53:00.266Z,6004.00
2022-12-15T10:54:00.273Z,5752.00
2022-12-15T10:55:00.259Z,5808.00
2022-12-15T10:56:00.235Z,5576.00
2022-12-15T10:57:00.227Z,5512.00
2022-12-15T10:58:00.213Z,5336.00
2022-12-15T10:59:00.223Z,5264.00
2022-12-15T11:00:00.194Z,5256.00
2022-12-15T11:01:00.181Z,5412.00
2022-12-15T11:02:00.380Z,5840.00
2022-12-15T11:03:00.556Z,7324.00
2022-12-15T11:04:00.469Z,6892.00
2022-12-15T11:05:00.150Z,6844.00
2022-12-15T11:06:00.133Z,6956.00
2022-12-15T11:07:00.121Z,6248.00
2022-12-15T11:08:00.109Z,5244.00
2022-12-15T11:09:00.112Z,5188.00
2022-12-15T11:10:00.097Z,4980.00
2022-12-15T11:11:00.093Z,4888.00
2022-12-15T11:12:00.132Z,4836.00
2022-12-15T11:13:00.085Z,3880.00
2022-12-15T11:14:00.081Z,4508.00
2022-12-15T11:15:00.036Z,4484.00
2022-12-15T11:16:00.022Z,4240.00
2022-12-15T11:17:00.014Z,3948.00
2022-12-15T11:18:00.003Z,3440.00
2022-12-15T11:18:59.995Z,3384.00
2022-12-15T11:20:03.134Z,3424.00
2022-12-15T11:20:59.971Z,3100.00
2022-12-15T11:21:59.958Z,3052.00
2022-12-15T11:22:59.950Z,2892.00
2022-12-15T11:23:59.941Z,2944.00
2022-12-15T11:24:59.975Z,2836.00
2022-12-15T11:26:04.945Z,2736.00
2022-12-15T11:27:00.936Z,2720.00
2022-12-15T11:27:59.896Z,2732.00
2022-12-15T11:28:59.895Z,2740.00
2022-12-15T11:29:59.904Z,2540.00
2022-12-15T11:30:59.867Z,2524.00
2022-12-15T11:32:05.012Z,2644.00
2022-12-15T11:33:00.848Z,2760.00
2022-12-15T11:33:59.836Z,2992.00
2022-12-15T11:34:59.842Z,2956.00
2022-12-15T11:35:59.813Z,3108.00
2022-12-15T11:36:59.808Z,3172.00
2022-12-15T11:37:59.792Z,3376.00
2022-12-15T11:38:59.825Z,3264.00
2022-12-15T11:39:59.788Z,3208.00
2022-12-15T11:40:59.762Z,3152.00
2022-12-15T11:41:59.750Z,3044.00
2022-12-15T11:42:59.793Z,2724.00
2022-12-15T11:44:04.266Z,2816.00
2022-12-15T11:45:00.736Z,2956.00
2022-12-15T11:45:59.711Z,3084.00
2022-12-15T11:46:59.703Z,3072.00
2022-12-15T11:47:59.695Z,3156.00
2022-12-15T11:48:59.701Z,3048.00
2022-12-15T11:49:59.687Z,2976.00
2022-12-15T11:50:59.659Z,2824.00
2022-12-15T11:51:59.653Z,2616.00
2022-12-15T11:52:59.651Z,2652.00
2022-12-15T11:53:59.629Z,2804.00
2022-12-15T11:54:59.634Z,3176.00
2022-12-15T11:55:59.609Z,3536.00
2022-12-15T11:56:59.600Z,3712.00
2022-12-15T11:57:59.581Z,4140.00
2022-12-15T11:58:59.656Z,4540.00
2022-12-15T11:59:59.578Z,4940.00
2022-12-15T12:00:59.553Z,4748.00
2022-12-15T12:02:03.269Z,4356.00
2022-12-15T12:02:59.567Z,4004.00
2022-12-15T12:03:59.534Z,3888.00
2022-12-15T12:04:59.529Z,3580.00
2022-12-15T12:05:59.500Z,3364.00
2022-12-15T12:06:59.491Z,3288.00
2022-12-15T12:07:59.480Z,3440.00
2022-12-15T12:08:59.482Z,3492.00
2022-12-15T12:09:59.475Z,3588.00
2022-12-15T12:10:59.534Z,3464.00
2022-12-15T12:11:59.444Z,3388.00
2022-12-15T12:12:59.442Z,3464.00
2022-12-15T12:13:59.428Z,3604.00
2022-12-15T12:14:59.437Z,3540.00
2022-12-15T12:15:59.404Z,3516.00
2022-12-15T12:16:59.391Z,3220.00
2022-12-15T12:17:59.377Z,3000.00
2022-12-15T12:18:59.404Z,3020.00
2022-12-15T12:19:59.370Z,2936.00
2022-12-15T12:20:59.345Z,2820.00
2022-12-15T12:21:59.347Z,2724.00
2022-12-15T12:22:59.327Z,2676.00
2022-12-15T12:23:59.316Z,2612.00
2022-12-15T12:24:59.321Z,2560.00
2022-12-15T12:26:02.939Z,2624.00
2022-12-15T12:26:59.282Z,2568.00
2022-12-15T12:27:59.283Z,2528.00
2022-12-15T12:28:59.268Z,2476.00
2022-12-15T12:29:59.274Z,2492.00
2022-12-15T12:30:59.275Z,2504.00
2022-12-15T12:32:04.520Z,2452.00
2022-12-15T12:33:00.222Z,2432.00
2022-12-15T12:33:59.217Z,2412.00
2022-12-15T12:35:30.945Z,2408.00
2022-12-15T12:36:00.188Z,2360.00
2022-12-15T12:36:59.181Z,2344.00
2022-12-15T12:38:03.044Z,2380.00
2022-12-15T12:38:59.159Z,2272.00
2022-12-15T12:39:59.156Z,2224.00
2022-12-15T12:40:59.170Z,2260.00
2022-12-15T12:41:59.142Z,2228.00
2022-12-15T12:42:59.124Z,2272.00
2022-12-15T12:43:59.108Z,2272.00
2022-12-15T12:44:59.109Z,2244.00
2022-12-15T12:45:59.086Z,2264.00